Time;durP1;ratioP1;P1;durP2;ratioP2;P2;SDS_P1;SDS_P2;PMS_P1;PMS_P2;Temp;Humidity;BMP_temperature;BMP_pressure;BME280_temperature;BME280_humidity;BME280_pressure;Samples;Min_cycle;Max_cycle;Signal;HPM_P1;HPM_P2
2022/11/26 00:02:22;;;;;;;43.28;12.07;;;;;;;;;;5051168;28;20021;-73
2022/11/26 00:04:48;;;;;;;56.55;13.57;;;;;;;;;;5052832;28;20025;-73
2022/11/26 00:07:16;;;;;;;40.00;11.73;;;;;;;;;;5052619;28;20267;-73
2022/11/26 00:09:43;;;;;;;34.10;11.85;;;;;;;;;;5053272;28;20029;-72
2022/11/26 00:12:13;;;;;;;34.22;11.13;;;;;;;;;;5053795;28;20044;-73
2022/11/26 00:14:39;;;;;;;42.67;11.98;;;;;;;;;;5053743;28;20043;-73
2022/11/26 00:17:05;;;;;;;40.95;11.50;;;;;;;;;;5051828;28;20028;-72
2022/11/26 00:19:31;;;;;;;42.60;13.05;;;;;;;;;;5052613;28;20172;-73
2022/11/26 00:21:57;;;;;;;41.83;11.75;;;;;;;;;;5054125;28;20020;-73
2022/11/26 00:24:26;;;;;;;47.10;12.65;;;;;;;;;;5055890;28;20501;-73
2022/11/26 00:26:53;;;;;;;64.55;18.08;;;;;;;;;;5055417;28;20029;-73
2022/11/26 00:29:19;;;;;;;66.25;14.50;;;;;;;;;;5055839;28;20108;-73
2022/11/26 00:31:45;;;;;;;45.95;13.95;;;;;;;;;;5055892;28;20143;-72
2022/11/26 00:34:11;;;;;;;61.20;13.68;;;;;;;;;;5056629;28;20066;-73
2022/11/26 00:36:37;;;;;;;37.33;12.50;;;;;;;;;;5058579;28;20035;-74
2022/11/26 00:39:16;;;;;;;37.65;12.68;;;;;;;;;;5063688;28;20081;-73
2022/11/26 00:41:44;;;;;;;36.60;12.25;;;;;;;;;;5061351;28;20025;-73
2022/11/26 00:44:16;;;;;;;44.03;13.38;;;;;;;;;;5062833;28;20032;-73
2022/11/26 00:46:42;;;;;;;52.28;13.73;;;;;;;;;;5058493;28;20438;-73
2022/11/26 00:49:08;;;;;;;40.72;12.32;;;;;;;;;;5058686;28;20052;-74
2022/11/26 00:51:34;;;;;;;49.22;13.70;;;;;;;;;;5056713;28;20039;-73
2022/11/26 00:54:01;;;;;;;46.97;13.52;;;;;;;;;;5055402;28;20120;-74
2022/11/26 00:56:27;;;;;;;45.25;13.63;;;;;;;;;;5064724;28;20067;-73
2022/11/26 00:58:53;;;;;;;49.65;14.23;;;;;;;;;;5066819;28;20049;-73
2022/11/26 01:01:20;;;;;;;66.00;14.35;;;;;;;;;;5063837;28;20052;-72
2022/11/26 01:03:46;;;;;;;58.72;13.48;;;;;;;;;;5066069;28;20049;-73
2022/11/26 01:06:18;;;;;;;46.42;13.68;;;;;;;;;;5065424;28;20071;-73
2022/11/26 01:08:45;;;;;;;42.97;13.27;;;;;;;;;;5065979;28;20025;-73
2022/11/26 01:11:13;;;;;;;42.72;13.48;;;;;;;;;;5057544;28;20489;-73
2022/11/26 01:13:39;;;;;;;44.67;13.73;;;;;;;;;;5053730;28;20028;-73
2022/11/26 01:16:14;;;;;;;42.35;13.23;;;;;;;;;;5054356;28;20036;-73
2022/11/26 01:18:40;;;;;;;42.63;13.35;;;;;;;;;;5055143;28;20025;-73
2022/11/26 01:21:08;;;;;;;59.65;15.05;;;;;;;;;;5054771;28;20021;-74
2022/11/26 01:23:34;;;;;;;55.40;14.60;;;;;;;;;;5057090;28;20025;-72
2022/11/26 01:26:00;;;;;;;46.95;14.43;;;;;;;;;;5052871;28;20382;-72
2022/11/26 01:28:26;;;;;;;42.28;14.05;;;;;;;;;;5054683;28;20079;-73
2022/11/26 01:30:52;;;;;;;50.83;14.70;;;;;;;;;;5054422;28;20051;-72
2022/11/26 01:33:18;;;;;;;49.00;14.50;;;;;;;;;;5052164;28;20052;-74
2022/11/26 01:35:44;;;;;;;48.13;14.95;;;;;;;;;;5053771;28;20029;-73
2022/11/26 01:38:13;;;;;;;58.58;15.05;;;;;;;;;;5053002;28;20476;-73
2022/11/26 01:40:46;;;;;;;49.63;15.15;;;;;;;;;;5054164;28;20032;-74
2022/11/26 01:43:15;;;;;;;51.92;14.63;;;;;;;;;;5054617;28;20462;-73
2022/11/26 01:45:40;;;;;;;44.70;14.90;;;;;;;;;;5056416;28;20501;-72
2022/11/26 01:48:21;;;;;;;48.50;15.00;;;;;;;;;;5054616;28;20033;-74
2022/11/26 01:50:52;;;;;;;41.30;13.93;;;;;;;;;;5060193;28;20025;-74
2022/11/26 01:53:21;;;;;;;61.92;15.43;;;;;;;;;;5054245;28;20025;-73
2022/11/26 01:56:09;;;;;;;60.33;14.10;;;;;;;;;;5052405;28;20033;-73
2022/11/26 01:58:38;;;;;;;47.53;14.43;;;;;;;;;;5056834;28;20029;-73
2022/11/26 02:01:04;;;;;;;45.80;13.90;;;;;;;;;;5053699;28;20064;-73
2022/11/26 02:03:32;;;;;;;50.08;14.07;;;;;;;;;;5054203;28;20083;-72
2022/11/26 02:06:06;;;;;;;51.13;15.93;;;;;;;;;;5055146;28;20032;-72
2022/11/26 02:08:33;;;;;;;50.45;15.13;;;;;;;;;;5059982;28;20491;-73
2022/11/26 02:11:02;;;;;;;59.70;15.82;;;;;;;;;;5054217;28;20072;-73
2022/11/26 02:13:28;;;;;;;48.65;15.23;;;;;;;;;;5057276;28;20029;-74
2022/11/26 02:16:06;;;;;;;47.60;14.82;;;;;;;;;;5067636;28;20053;-74
2022/11/26 02:18:33;;;;;;;46.38;13.68;;;;;;;;;;5063560;28;20460;-74
2022/11/26 02:21:05;;;;;;;63.92;17.25;;;;;;;;;;5052186;28;20107;-73
2022/11/26 02:23:34;;;;;;;47.88;14.07;;;;;;;;;;5052961;28;20032;-74
2022/11/26 02:26:09;;;;;;;45.55;14.95;;;;;;;;;;5051437;28;20029;-74
2022/11/26 02:28:44;;;;;;;49.22;14.13;;;;;;;;;;5052315;28;20028;-73
2022/11/26 02:31:12;;;;;;;50.38;14.40;;;;;;;;;;5052526;28;20025;-74
2022/11/26 02:33:46;;;;;;;41.22;14.38;;;;;;;;;;5052715;28;20100;-74
2022/11/26 02:36:12;;;;;;;;;;;;;;;;;;5052768;28;20383;-72
2022/11/26 02:38:38;;;;;;;44.55;14.82;;;;;;;;;;5053012;28;19911;-73
2022/11/26 02:41:05;;;;;;;48.08;13.77;;;;;;;;;;5052767;28;20496;-73
2022/11/26 02:43:32;;;;;;;52.92;15.00;;;;;;;;;;5052586;28;20473;-73
2022/11/26 02:46:00;;;;;;;39.78;13.05;;;;;;;;;;5051573;28;20040;-73
2022/11/26 02:48:28;;;;;;;47.30;15.05;;;;;;;;;;5053447;28;20024;-74
2022/11/26 02:51:12;;;;;;;58.10;14.18;;;;;;;;;;5051654;28;20146;-73
2022/11/26 02:53:39;;;;;;;46.88;14.68;;;;;;;;;;5051410;28;20484;-73
2022/11/26 02:56:06;;;;;;;42.70;14.23;;;;;;;;;;5051425;28;20029;-73
2022/11/26 02:58:33;;;;;;;43.90;14.60;;;;;;;;;;5050439;28;20032;-73
2022/11/26 03:01:00;;;;;;;45.65;14.25;;;;;;;;;;5051456;28;20028;-76
2022/11/26 03:03:31;;;;;;;42.63;13.20;;;;;;;;;;5048952;28;20021;-76
2022/11/26 03:06:00;;;;;;;48.33;13.45;;;;;;;;;;5050937;28;20021;-75
2022/11/26 03:08:26;;;;;;;40.08;12.35;;;;;;;;;;5051562;28;20151;-76
2022/11/26 03:10:52;;;;;;;26.65;11.13;;;;;;;;;;5054381;28;20025;-75
2022/11/26 03:13:18;;;;;;;36.75;12.10;;;;;;;;;;5053156;28;20051;-75
2022/11/26 03:15:44;;;;;;;38.03;13.20;;;;;;;;;;5051418;28;20047;-75
2022/11/26 03:18:10;;;;;;;42.20;13.25;;;;;;;;;;5051880;28;20451;-76
2022/11/26 03:20:36;;;;;;;46.38;13.70;;;;;;;;;;5052056;28;20100;-75
2022/11/26 03:23:02;;;;;;;40.10;14.35;;;;;;;;;;5051658;28;20052;-76
2022/11/26 03:25:28;;;;;;;40.05;14.88;;;;;;;;;;5051389;28;20024;-76
2022/11/26 03:27:54;;;;;;;38.53;14.25;;;;;;;;;;5051979;28;20029;-75
2022/11/26 03:30:20;;;;;;;38.83;13.73;;;;;;;;;;5051611;28;20035;-75
2022/11/26 03:32:46;;;;;;;37.85;14.27;;;;;;;;;;5052680;28;20410;-76
2022/11/26 03:35:12;;;;;;;31.92;13.90;;;;;;;;;;5053336;28;20078;-75
2022/11/26 03:37:38;;;;;;;27.63;13.45;;;;;;;;;;5059420;28;20044;-77
2022/11/26 03:40:05;;;;;;;41.13;14.10;;;;;;;;;;5064664;28;20032;-76
2022/11/26 03:42:31;;;;;;;40.45;14.88;;;;;;;;;;5068809;28;20010;-76
2022/11/26 03:44:57;;;;;;;58.33;14.77;;;;;;;;;;5063091;28;20029;-76
2022/11/26 03:47:23;;;;;;;57.58;15.80;;;;;;;;;;5057141;28;20024;-77
2022/11/26 03:49:49;;;;;;;31.02;15.27;;;;;;;;;;5061372;28;20049;-77
2022/11/26 03:52:15;;;;;;;31.05;14.38;;;;;;;;;;5061789;28;20040;-76
2022/11/26 03:54:40;;;;;;;34.88;15.38;;;;;;;;;;5067073;28;20039;-75
2022/11/26 03:57:06;;;;;;;32.33;15.02;;;;;;;;;;5063166;28;20459;-77
2022/11/26 03:59:32;;;;;;;32.58;15.23;;;;;;;;;;5072099;28;20025;-76
2022/11/26 04:01:58;;;;;;;38.30;16.33;;;;;;;;;;5063370;28;20048;-77
2022/11/26 04:04:24;;;;;;;35.75;16.30;;;;;;;;;;5070106;28;20037;-77
2022/11/26 04:06:50;;;;;;;44.47;16.13;;;;;;;;;;5075039;28;20010;-74
2022/11/26 04:09:16;;;;;;;139.18;17.17;;;;;;;;;;5080449;28;20031;-73
2022/11/26 04:11:42;;;;;;;32.13;15.95;;;;;;;;;;5080733;28;20017;-71
2022/11/26 04:14:08;;;;;;;41.00;17.05;;;;;;;;;;5080039;28;20052;-72
2022/11/26 04:16:34;;;;;;;37.70;17.10;;;;;;;;;;5078953;28;20092;-72
2022/11/26 04:19:00;;;;;;;36.92;17.67;;;;;;;;;;5081099;28;20112;-71
2022/11/26 04:21:26;;;;;;;36.65;19.27;;;;;;;;;;5081281;28;20055;-74
2022/11/26 04:23:52;;;;;;;36.60;18.20;;;;;;;;;;5081171;28;20025;-72
2022/11/26 04:26:18;;;;;;;47.65;18.70;;;;;;;;;;5080394;28;20047;-71
2022/11/26 04:28:44;;;;;;;39.72;19.02;;;;;;;;;;5080659;28;20021;-71
2022/11/26 04:31:10;;;;;;;50.58;19.77;;;;;;;;;;5080501;28;20021;-71
2022/11/26 04:33:36;;;;;;;45.90;19.60;;;;;;;;;;5080816;28;20036;-73
2022/11/26 04:36:02;;;;;;;48.42;20.10;;;;;;;;;;5079868;28;20036;-73
2022/11/26 04:38:28;;;;;;;47.42;19.65;;;;;;;;;;5079081;28;20425;-74
2022/11/26 04:40:54;;;;;;;42.30;20.00;;;;;;;;;;5078480;28;20029;-72
2022/11/26 04:43:20;;;;;;;45.35;19.65;;;;;;;;;;5074050;28;20080;-77
2022/11/26 04:45:46;;;;;;;105.05;21.95;;;;;;;;;;5055396;28;20111;-78
2022/11/26 04:48:12;;;;;;;48.40;21.27;;;;;;;;;;5055437;28;20032;-77
2022/11/26 04:50:38;;;;;;;55.42;21.63;;;;;;;;;;5054402;28;20367;-77
2022/11/26 04:53:04;;;;;;;54.53;21.08;;;;;;;;;;5057140;28;20029;-78
2022/11/26 04:55:30;;;;;;;53.05;20.67;;;;;;;;;;5058685;28;20036;-76
2022/11/26 04:57:56;;;;;;;52.20;22.02;;;;;;;;;;5057426;28;20037;-76
2022/11/26 05:00:22;;;;;;;46.42;21.13;;;;;;;;;;5058258;28;20025;-75
2022/11/26 05:02:48;;;;;;;54.30;21.58;;;;;;;;;;5056746;28;20017;-76
2022/11/26 05:05:14;;;;;;;74.43;23.10;;;;;;;;;;5057230;28;20033;-77
2022/11/26 05:07:40;;;;;;;98.03;22.40;;;;;;;;;;5059620;28;20039;-76
2022/11/26 05:10:07;;;;;;;52.33;21.58;;;;;;;;;;5057730;28;20043;-75
2022/11/26 05:12:33;;;;;;;54.10;22.77;;;;;;;;;;5056503;28;20021;-76
2022/11/26 05:14:59;;;;;;;89.40;22.08;;;;;;;;;;5056442;28;20029;-76
2022/11/26 05:17:25;;;;;;;47.75;22.20;;;;;;;;;;5056640;28;20032;-76
2022/11/26 05:19:51;;;;;;;45.63;21.77;;;;;;;;;;5062006;28;20024;-77
2022/11/26 05:22:17;;;;;;;50.72;21.95;;;;;;;;;;5065950;28;20430;-77
2022/11/26 05:24:43;;;;;;;50.60;21.92;;;;;;;;;;5059524;28;20029;-76
2022/11/26 05:27:09;;;;;;;62.50;21.15;;;;;;;;;;5055310;28;20134;-77
2022/11/26 05:29:34;;;;;;;44.60;21.58;;;;;;;;;;5055402;28;20043;-76
2022/11/26 05:32:00;;;;;;;53.45;22.10;;;;;;;;;;5057246;28;20493;-77
2022/11/26 05:34:26;;;;;;;59.17;22.73;;;;;;;;;;5054588;28;20393;-76
2022/11/26 05:36:52;;;;;;;63.67;23.92;;;;;;;;;;5053816;28;20440;-75
2022/11/26 05:39:18;;;;;;;99.53;22.95;;;;;;;;;;5054566;28;20021;-75
2022/11/26 05:41:44;;;;;;;58.55;23.33;;;;;;;;;;5054115;28;20036;-75
2022/11/26 05:44:10;;;;;;;57.70;23.00;;;;;;;;;;5058590;28;20025;-73
2022/11/26 05:46:38;;;;;;;65.82;24.48;;;;;;;;;;5054060;28;20029;-76
2022/11/26 05:49:04;;;;;;;49.65;23.13;;;;;;;;;;5054840;28;20111;-73
2022/11/26 05:51:30;;;;;;;61.67;26.50;;;;;;;;;;5053107;28;20033;-77
2022/11/26 05:53:56;;;;;;;49.42;25.55;;;;;;;;;;5054125;28;20064;-75
2022/11/26 05:56:22;;;;;;;83.55;26.67;;;;;;;;;;5053374;28;20024;-76
2022/11/26 05:58:48;;;;;;;59.88;27.00;;;;;;;;;;5054038;28;20364;-75
2022/11/26 06:01:14;;;;;;;59.75;26.65;;;;;;;;;;5053845;28;20027;-75
2022/11/26 06:03:40;;;;;;;70.07;27.90;;;;;;;;;;5054359;28;20478;-74
2022/11/26 06:06:06;;;;;;;62.50;26.83;;;;;;;;;;5052538;28;20044;-75
2022/11/26 06:08:32;;;;;;;60.95;26.27;;;;;;;;;;5054768;28;20067;-77
2022/11/26 06:10:58;;;;;;;55.15;24.88;;;;;;;;;;5054985;28;20029;-75
2022/11/26 06:13:24;;;;;;;73.57;24.08;;;;;;;;;;5054968;28;20589;-76
2022/11/26 06:15:50;;;;;;;70.90;25.35;;;;;;;;;;5055897;28;20033;-75
2022/11/26 06:18:17;;;;;;;60.40;22.98;;;;;;;;;;5058645;28;20147;-75
2022/11/26 06:20:42;;;;;;;59.00;22.88;;;;;;;;;;5059486;28;20021;-75
2022/11/26 06:23:08;;;;;;;61.83;23.42;;;;;;;;;;5059723;28;20116;-75
2022/11/26 06:25:34;;;;;;;58.25;21.60;;;;;;;;;;5061125;28;20021;-77
2022/11/26 06:28:00;;;;;;;51.75;22.60;;;;;;;;;;5069475;28;20078;-74
2022/11/26 06:30:26;;;;;;;57.88;23.55;;;;;;;;;;5069980;28;20067;-74
2022/11/26 06:32:52;;;;;;;62.95;21.67;;;;;;;;;;5058422;28;20029;-76
2022/11/26 06:35:18;;;;;;;54.17;22.55;;;;;;;;;;5058518;28;20091;-78
2022/11/26 06:37:44;;;;;;;55.70;21.98;;;;;;;;;;5057505;28;20068;-75
2022/11/26 06:40:14;;;;;;;50.38;22.15;;;;;;;;;;5053910;28;20025;-74
2022/11/26 06:42:40;;;;;;;51.97;22.55;;;;;;;;;;5053895;28;20017;-74
2022/11/26 06:45:07;;;;;;;58.85;23.35;;;;;;;;;;5054030;28;20082;-72
2022/11/26 06:47:33;;;;;;;58.75;24.40;;;;;;;;;;5053445;28;20024;-76
2022/11/26 06:49:58;;;;;;;54.67;22.48;;;;;;;;;;5066464;28;20112;-73
2022/11/26 06:52:24;;;;;;;60.83;23.55;;;;;;;;;;5075311;28;20036;-71
2022/11/26 06:54:50;;;;;;;59.00;23.27;;;;;;;;;;5058863;28;20071;-74
2022/11/26 06:57:16;;;;;;;55.10;24.17;;;;;;;;;;5052122;28;20056;-76
2022/11/26 06:59:42;;;;;;;65.55;23.23;;;;;;;;;;5051830;28;20033;-75
2022/11/26 07:02:09;;;;;;;57.28;24.75;;;;;;;;;;5051418;28;20552;-76
2022/11/26 07:04:35;;;;;;;69.20;24.67;;;;;;;;;;5052748;28;20056;-77
2022/11/26 07:07:01;;;;;;;52.10;23.95;;;;;;;;;;5052528;28;20060;-75
2022/11/26 07:09:27;;;;;;;54.33;24.20;;;;;;;;;;5053336;28;20029;-73
2022/11/26 07:11:53;;;;;;;53.80;24.15;;;;;;;;;;5051259;28;20550;-73
2022/11/26 07:14:21;;;;;;;58.15;25.95;;;;;;;;;;5052608;28;20032;-75
2022/11/26 07:16:47;;;;;;;51.38;23.88;;;;;;;;;;5056740;28;20017;-73
2022/11/26 07:19:13;;;;;;;52.45;24.30;;;;;;;;;;5052666;28;20028;-74
2022/11/26 07:21:39;;;;;;;66.30;25.58;;;;;;;;;;5052486;28;20025;-74
2022/11/26 07:24:05;;;;;;;53.58;23.88;;;;;;;;;;5053775;28;20537;-74
2022/11/26 07:26:31;;;;;;;53.55;25.38;;;;;;;;;;5054817;28;20033;-76
2022/11/26 07:28:57;;;;;;;51.33;24.70;;;;;;;;;;5051043;28;20082;-74
2022/11/26 07:31:23;;;;;;;50.97;24.00;;;;;;;;;;5050379;28;20069;-72
2022/11/26 07:33:49;;;;;;;57.90;25.38;;;;;;;;;;5052599;28;20036;-76
2022/11/26 07:36:23;;;;;;;52.83;24.50;;;;;;;;;;5052276;28;20082;-72
2022/11/26 07:38:49;;;;;;;62.45;25.05;;;;;;;;;;5053681;28;20060;-76
2022/11/26 07:41:16;;;;;;;49.67;25.42;;;;;;;;;;5053993;28;20021;-75
2022/11/26 07:43:42;;;;;;;69.88;26.80;;;;;;;;;;5053358;28;20108;-75
2022/11/26 07:46:10;;;;;;;71.43;26.65;;;;;;;;;;5054596;28;20017;-75
2022/11/26 07:48:38;;;;;;;55.10;25.80;;;;;;;;;;5052308;28;20029;-76
2022/11/26 07:51:04;;;;;;;55.55;25.23;;;;;;;;;;5053957;28;20013;-73
2022/11/26 07:53:31;;;;;;;56.28;27.25;;;;;;;;;;5054439;28;20036;-76
2022/11/26 07:55:57;;;;;;;65.50;25.67;;;;;;;;;;5048123;28;20025;-75
2022/11/26 07:58:23;;;;;;;60.42;26.35;;;;;;;;;;5055461;28;20029;-74
2022/11/26 08:00:49;;;;;;;58.08;27.92;;;;;;;;;;5053029;28;20045;-75
2022/11/26 08:03:15;;;;;;;59.97;25.55;;;;;;;;;;5052946;28;20095;-75
2022/11/26 08:05:42;;;;;;;50.75;24.48;;;;;;;;;;5059994;28;20020;-75
2022/11/26 08:08:08;;;;;;;60.63;24.83;;;;;;;;;;5057724;28;20052;-75
2022/11/26 08:10:33;;;;;;;64.03;25.75;;;;;;;;;;5054701;28;20025;-75
2022/11/26 08:12:59;;;;;;;64.70;27.23;;;;;;;;;;5053239;28;20413;-75
2022/11/26 08:15:25;;;;;;;55.03;24.67;;;;;;;;;;5054674;28;20021;-77
2022/11/26 08:17:55;;;;;;;59.63;26.67;;;;;;;;;;5061386;28;20117;-77
2022/11/26 08:20:21;;;;;;;62.60;26.52;;;;;;;;;;5067034;28;20029;-75
2022/11/26 08:22:47;;;;;;;69.05;27.63;;;;;;;;;;5062852;28;20021;-76
2022/11/26 08:25:13;;;;;;;58.28;25.58;;;;;;;;;;5058914;28;20074;-75
2022/11/26 08:27:39;;;;;;;66.13;26.75;;;;;;;;;;5059683;28;20040;-74
2022/11/26 08:30:05;;;;;;;52.83;24.13;;;;;;;;;;5059894;28;20104;-74
2022/11/26 08:32:31;;;;;;;53.85;23.17;;;;;;;;;;5052476;28;20458;-78
2022/11/26 08:34:57;;;;;;;55.47;24.48;;;;;;;;;;5050783;28;20516;-74
2022/11/26 08:37:23;;;;;;;52.38;24.52;;;;;;;;;;5052016;28;20116;-75
2022/11/26 08:39:49;;;;;;;54.05;25.10;;;;;;;;;;5053914;28;20097;-75
2022/11/26 08:42:15;;;;;;;56.00;25.73;;;;;;;;;;5054312;28;20089;-75
2022/11/26 08:44:41;;;;;;;60.03;29.20;;;;;;;;;;5055982;28;20390;-75
2022/11/26 08:47:07;;;;;;;50.22;24.70;;;;;;;;;;5054867;28;20029;-74
2022/11/26 08:49:33;;;;;;;51.08;23.48;;;;;;;;;;5058935;28;20030;-76
2022/11/26 08:51:59;;;;;;;62.90;30.88;;;;;;;;;;5061593;28;20093;-76
2022/11/26 08:54:25;;;;;;;76.15;31.67;;;;;;;;;;5060304;28;20075;-74
2022/11/26 08:56:51;;;;;;;62.25;29.40;;;;;;;;;;5055364;28;20063;-74
2022/11/26 08:59:19;;;;;;;63.08;29.15;;;;;;;;;;5058227;28;20450;-72
2022/11/26 09:01:45;;;;;;;54.50;24.60;;;;;;;;;;5066037;28;20071;-74
2022/11/26 09:04:11;;;;;;;45.05;23.40;;;;;;;;;;5057306;28;20433;-76
2022/11/26 09:06:39;;;;;;;42.13;22.52;;;;;;;;;;5057997;28;20481;-72
2022/11/26 09:09:11;;;;;;;49.03;23.48;;;;;;;;;;5061506;28;20021;-74
2022/11/26 09:11:39;;;;;;;45.92;22.50;;;;;;;;;;5054202;28;20027;-73
2022/11/26 09:14:05;;;;;;;70.78;33.55;;;;;;;;;;5054824;28;20039;-75
2022/11/26 09:16:31;;;;;;;49.53;23.58;;;;;;;;;;5054195;28;20029;-73
2022/11/26 09:19:01;;;;;;;45.10;23.15;;;;;;;;;;5055378;28;20045;-75
2022/11/26 09:21:28;;;;;;;47.92;22.92;;;;;;;;;;5054454;28;20029;-73
2022/11/26 09:23:54;;;;;;;58.35;25.60;;;;;;;;;;5055898;28;20025;-72
2022/11/26 09:26:21;;;;;;;59.33;26.20;;;;;;;;;;5058185;28;20037;-69
2022/11/26 09:28:47;;;;;;;61.58;26.75;;;;;;;;;;5064155;28;20108;-73
2022/11/26 09:31:13;;;;;;;58.28;26.23;;;;;;;;;;5056057;28;20060;-77
2022/11/26 09:33:39;;;;;;;61.13;28.00;;;;;;;;;;5056129;28;20029;-72
2022/11/26 09:36:06;;;;;;;54.42;27.70;;;;;;;;;;5075505;23;20066;-79
2022/11/26 09:38:33;;;;;;;54.67;27.08;;;;;;;;;;5041071;28;20498;-77
2022/11/26 09:41:08;;;;;;;61.92;28.58;;;;;;;;;;5041124;28;20057;-77
2022/11/26 09:43:42;;;;;;;66.15;29.25;;;;;;;;;;5056760;28;20026;-77
2022/11/26 09:46:09;;;;;;;61.47;30.48;;;;;;;;;;5041876;28;20033;-75
2022/11/26 09:48:36;;;;;;;61.75;28.77;;;;;;;;;;5042549;28;20033;-76
2022/11/26 09:51:04;;;;;;;67.68;29.30;;;;;;;;;;5039523;28;20098;-78
2022/11/26 09:53:32;;;;;;;72.97;30.02;;;;;;;;;;5042859;28;20021;-75
2022/11/26 09:56:00;;;;;;;72.45;30.00;;;;;;;;;;5056727;28;20109;-77
2022/11/26 09:58:29;;;;;;;64.10;29.05;;;;;;;;;;5057526;28;20056;-79
2022/11/26 10:00:56;;;;;;;72.72;30.80;;;;;;;;;;5057754;28;20038;-78
2022/11/26 10:03:23;;;;;;;74.82;29.52;;;;;;;;;;5041090;28;20034;-77
2022/11/26 10:06:01;;;;;;;59.60;27.63;;;;;;;;;;5039107;28;20108;-79
2022/11/26 10:08:27;;;;;;;73.60;27.98;;;;;;;;;;5035560;28;20098;-79
2022/11/26 10:11:02;;;;;;;60.05;26.45;;;;;;;;;;5038120;28;20026;-78
2022/11/26 10:13:38;;;;;;;71.22;27.30;;;;;;;;;;5037297;28;20029;-77
2022/11/26 10:16:13;;;;;;;64.18;26.77;;;;;;;;;;5039307;28;20053;-79
2022/11/26 10:18:58;;;;;;;64.93;27.25;;;;;;;;;;5036655;28;20060;-78
2022/11/26 10:21:44;;;;;;;53.33;25.58;;;;;;;;;;5038293;28;20034;-76
2022/11/26 10:24:15;;;;;;;54.35;25.63;;;;;;;;;;5034981;28;20033;-78
2022/11/26 10:26:42;;;;;;;55.90;24.88;;;;;;;;;;5038883;28;20478;-77
2022/11/26 10:29:16;;;;;;;62.10;25.80;;;;;;;;;;5036620;28;20026;-79
2022/11/26 10:31:45;;;;;;;67.97;29.00;;;;;;;;;;5036073;28;20074;-79
2022/11/26 10:34:13;;;;;;;59.53;25.77;;;;;;;;;;5035220;28;20060;-77
2022/11/26 10:36:41;;;;;;;64.38;26.33;;;;;;;;;;5035028;28;20139;-80
2022/11/26 10:39:07;;;;;;;68.53;27.23;;;;;;;;;;5036956;28;20429;-77
2022/11/26 10:41:34;;;;;;;70.90;30.20;;;;;;;;;;5047721;28;20022;-78
2022/11/26 10:44:20;;;;;;;56.28;27.40;;;;;;;;;;5051735;28;20025;-81
2022/11/26 10:46:46;;;;;;;59.95;24.13;;;;;;;;;;5053810;28;20030;-79
2022/11/26 10:49:20;;;;;;;54.33;26.13;;;;;;;;;;5052850;28;20037;-79
2022/11/26 10:51:47;;;;;;;55.92;26.50;;;;;;;;;;5055970;28;20169;-78
2022/11/26 10:54:33;;;;;;;51.72;25.60;;;;;;;;;;5037358;28;20026;-86
2022/11/26 10:57:04;;;;;;;60.33;25.70;;;;;;;;;;5039972;28;20108;-78
2022/11/26 10:59:39;;;;;;;53.72;24.88;;;;;;;;;;5038585;28;20047;-80
2022/11/26 11:02:24;;;;;;;53.22;24.55;;;;;;;;;;5037380;28;20049;-79
2022/11/26 11:04:55;;;;;;;48.97;23.17;;;;;;;;;;5037040;28;20390;-77
2022/11/26 11:07:27;;;;;;;57.70;25.65;;;;;;;;;;5036643;28;20108;-77
2022/11/26 11:10:01;;;;;;;80.63;26.90;;;;;;;;;;5038704;28;20065;-78
2022/11/26 11:12:27;;;;;;;56.70;24.83;;;;;;;;;;5039319;28;20025;-79
2022/11/26 11:14:53;;;;;;;62.17;26.88;;;;;;;;;;5038071;28;20548;-79
2022/11/26 11:17:33;;;;;;;55.38;25.42;;;;;;;;;;5037622;28;20034;-79
2022/11/26 11:20:03;;;;;;;58.83;26.90;;;;;;;;;;5038908;28;20101;-80
2022/11/26 11:22:29;;;;;;;59.90;26.25;;;;;;;;;;5039873;28;20433;-79
2022/11/26 11:24:57;;;;;;;57.22;26.55;;;;;;;;;;5046369;28;20001;-81
2022/11/26 11:27:27;;;;;;;52.00;24.75;;;;;;;;;;5048748;28;20029;-79
2022/11/26 11:29:59;;;;;;;59.45;25.50;;;;;;;;;;5043921;28;20470;-78
2022/11/26 11:32:36;;;;;;;57.55;25.98;;;;;;;;;;5044789;28;20030;-77
2022/11/26 11:35:12;;;;;;;58.65;25.10;;;;;;;;;;5047348;28;20058;-79
2022/11/26 11:37:47;;;;;;;54.10;24.08;;;;;;;;;;5051315;28;20181;-78
2022/11/26 11:40:13;;;;;;;;;;;;;;;;;;5049527;28;20026;-80
2022/11/26 11:42:39;;;;;;;56.03;25.58;;;;;;;;;;5049531;28;19946;-82
2022/11/26 11:45:18;;;;;;;59.05;27.67;;;;;;;;;;5051462;28;20032;-77
2022/11/26 11:47:46;;;;;;;53.95;25.35;;;;;;;;;;5047925;28;20544;-78
2022/11/26 11:50:30;;;;;;;55.95;26.38;;;;;;;;;;5040897;28;20112;-79
2022/11/26 11:53:02;;;;;;;56.45;26.88;;;;;;;;;;5035200;28;20044;-79
2022/11/26 11:55:31;;;;;;;70.50;27.85;;;;;;;;;;5035376;28;20097;-77
2022/11/26 11:58:16;;;;;;;56.90;27.13;;;;;;;;;;5040106;28;20031;-78
2022/11/26 12:00:41;;;;;;;70.53;29.17;;;;;;;;;;5042101;28;20021;-79
2022/11/26 12:03:10;;;;;;;60.83;27.58;;;;;;;;;;5044577;28;20026;-80
2022/11/26 12:05:36;;;;;;;63.60;29.15;;;;;;;;;;5039329;28;20036;-77
2022/11/26 12:08:02;;;;;;;62.45;28.88;;;;;;;;;;5043888;28;20029;-81
2022/11/26 12:10:40;;;;;;;70.32;31.23;;;;;;;;;;5036654;28;20049;-78
2022/11/26 12:13:07;;;;;;;65.60;29.58;;;;;;;;;;5037985;28;20028;-78
2022/11/26 12:15:35;;;;;;;72.55;30.42;;;;;;;;;;5037105;28;20040;-79
2022/11/26 12:18:04;;;;;;;61.70;28.73;;;;;;;;;;5043396;28;20061;-79
2022/11/26 12:20:36;;;;;;;75.03;31.92;;;;;;;;;;5037705;28;20025;-78
2022/11/26 12:23:12;;;;;;;85.60;34.88;;;;;;;;;;5039355;28;20633;-79
2022/11/26 12:25:38;;;;;;;71.20;30.23;;;;;;;;;;5039767;28;20029;-77
2022/11/26 12:28:10;;;;;;;77.65;32.75;;;;;;;;;;5043180;28;20109;-79
2022/11/26 12:30:39;;;;;;;77.82;31.10;;;;;;;;;;5039429;28;20022;-77
2022/11/26 12:33:26;;;;;;;70.57;32.22;;;;;;;;;;5038998;28;20048;-79
2022/11/26 12:36:00;;;;;;;78.18;32.80;;;;;;;;;;5038334;28;20029;-77
2022/11/26 12:38:31;;;;;;;67.97;31.70;;;;;;;;;;5040425;28;20033;-79
2022/11/26 12:41:01;;;;;;;72.35;32.45;;;;;;;;;;5041675;28;20022;-78
2022/11/26 12:43:32;;;;;;;72.00;32.63;;;;;;;;;;5042497;28;20036;-81
2022/11/26 12:46:01;;;;;;;77.30;33.35;;;;;;;;;;5037509;28;20056;-78
2022/11/26 12:48:32;;;;;;;74.05;31.85;;;;;;;;;;5039286;28;20021;-80
2022/11/26 12:51:06;;;;;;;68.28;30.77;;;;;;;;;;5042422;28;20025;-81
2022/11/26 12:53:41;;;;;;;70.45;30.63;;;;;;;;;;5046728;28;20021;-78
2022/11/26 12:56:17;;;;;;;73.72;30.92;;;;;;;;;;5047197;28;20268;-78
2022/11/26 12:58:43;;;;;;;77.32;32.40;;;;;;;;;;5049733;28;20045;-80
2022/11/26 13:01:10;;;;;;;71.05;32.17;;;;;;;;;;5054049;28;20045;-80
2022/11/26 13:03:36;;;;;;;74.93;33.30;;;;;;;;;;5052899;28;20033;-77
2022/11/26 13:06:05;;;;;;;85.20;34.88;;;;;;;;;;5054079;28;20037;-76
2022/11/26 13:08:46;;;;;;;87.32;32.28;;;;;;;;;;5053193;28;20018;-79
2022/11/26 13:11:26;;;;;;;88.97;32.97;;;;;;;;;;5042587;28;20030;-78
2022/11/26 13:14:16;;;;;;;80.43;31.50;;;;;;;;;;5045782;28;20025;-74
2022/11/26 13:17:04;;;;;;;78.70;30.90;;;;;;;;;;5057146;28;20017;-78
2022/11/26 13:19:43;;;;;;;89.95;33.78;;;;;;;;;;5056156;28;20050;-77
2022/11/26 13:22:28;;;;;;;74.97;31.10;;;;;;;;;;5047765;28;20029;-78
2022/11/26 13:24:57;;;;;;;89.65;33.55;;;;;;;;;;5042810;28;20102;-79
2022/11/26 13:27:23;;;;;;;90.32;33.92;;;;;;;;;;5036187;28;20029;-79
2022/11/26 13:30:04;;;;;;;80.03;32.83;;;;;;;;;;5037680;28;20033;-80
2022/11/26 13:32:46;;;;;;;89.60;32.20;;;;;;;;;;5044093;28;20021;-78
2022/11/26 13:35:21;;;;;;;84.85;31.95;;;;;;;;;;5041422;28;20163;-80
2022/11/26 13:38:06;;;;;;;80.22;32.33;;;;;;;;;;5052104;28;20029;-79
2022/11/26 13:40:47;;;;;;;92.20;34.60;;;;;;;;;;5038800;28;20022;-79
2022/11/26 13:43:32;;;;;;;94.22;34.70;;;;;;;;;;5050988;28;20085;-79
2022/11/26 13:46:10;;;;;;;89.65;33.22;;;;;;;;;;5058747;28;20085;-77
2022/11/26 13:48:41;;;;;;;76.13;32.28;;;;;;;;;;5073526;28;20025;-80
2022/11/26 13:51:22;;;;;;;73.93;31.05;;;;;;;;;;5057734;28;20009;-79
2022/11/26 13:53:48;;;;;;;81.82;32.75;;;;;;;;;;5046574;28;20079;-78
2022/11/26 13:56:15;;;;;;;81.32;32.95;;;;;;;;;;5063449;28;20021;-80
2022/11/26 13:58:48;;;;;;;66.90;27.42;;;;;;;;;;5058691;28;20049;-78
2022/11/26 14:01:39;;;;;;;62.80;27.73;;;;;;;;;;5042915;28;20105;-78
2022/11/26 14:04:06;;;;;;;54.70;25.75;;;;;;;;;;5041833;28;20271;-80
2022/11/26 14:06:33;;;;;;;58.42;26.17;;;;;;;;;;5042920;28;20017;-80
2022/11/26 14:08:59;;;;;;;62.15;27.35;;;;;;;;;;5057859;28;20042;-82
2022/11/26 14:11:40;;;;;;;59.33;25.85;;;;;;;;;;5055582;28;20022;-79
2022/11/26 14:14:33;;;;;;;57.30;25.20;;;;;;;;;;5054540;28;20017;-81
2022/11/26 14:17:02;;;;;;;53.63;24.73;;;;;;;;;;5051732;28;20047;-79
2022/11/26 14:19:40;;;;;;;51.45;24.05;;;;;;;;;;5056301;28;20033;-79
2022/11/26 14:22:07;;;;;;;58.35;25.15;;;;;;;;;;5035956;28;20032;-75
2022/11/26 14:24:48;;;;;;;65.97;26.55;;;;;;;;;;5037355;28;20030;-79
2022/11/26 14:27:19;;;;;;;61.95;28.50;;;;;;;;;;5041949;28;20033;-78
2022/11/26 14:29:45;;;;;;;72.32;28.88;;;;;;;;;;5044564;28;20025;-78